createdAt,value
2023-11-07T00:01:34.109Z,100056.59
2023-11-07T00:04:02.084Z,100048.56
2023-11-07T00:06:30.326Z,100052.97
2023-11-07T00:08:58.184Z,100057.34
2023-11-07T00:11:26.003Z,100051.06
2023-11-07T00:13:53.853Z,100050.22
2023-11-07T00:16:21.723Z,100063.34
2023-11-07T00:18:49.934Z,100063.41
2023-11-07T00:21:18.141Z,100046.75
2023-11-07T00:23:45.917Z,100049.13
2023-11-07T00:26:14.379Z,100049.13
2023-11-07T00:28:48.425Z,100035.22
2023-11-07T00:31:16.182Z,100035.44
2023-11-07T00:33:44.070Z,100046.81
2023-11-07T00:36:13.125Z,100056.63
2023-11-07T00:38:40.922Z,100061.28
2023-11-07T00:41:08.818Z,100063.16
2023-11-07T00:43:36.738Z,100055.13
2023-11-07T00:46:04.837Z,100054.38
2023-11-07T00:48:33.046Z,100061.50
2023-11-07T00:51:01.414Z,100050.25
2023-11-07T00:53:29.218Z,100064.19
2023-11-07T00:55:57.064Z,100068.56
2023-11-07T00:58:24.802Z,100065.13
2023-11-07T01:00:52.589Z,100063.31
2023-11-07T01:03:20.393Z,100065.81
2023-11-07T01:05:48.313Z,100065.75
2023-11-07T01:08:16.429Z,100054.28
2023-11-07T01:10:44.506Z,100060.44
2023-11-07T01:13:12.997Z,100057.75
2023-11-07T01:15:40.779Z,100068.25
2023-11-07T01:18:08.988Z,100060.34
2023-11-07T01:20:36.874Z,100060.97
2023-11-07T01:23:04.688Z,100066.22
2023-11-07T01:25:32.648Z,100060.97
2023-11-07T01:28:00.467Z,100058.22
2023-11-07T01:30:28.157Z,100052.25
2023-11-07T01:32:56.754Z,100057.34
2023-11-07T01:35:25.461Z,100060.25
2023-11-07T01:37:53.766Z,100055.63
2023-11-07T01:40:21.851Z,100050.38
2023-11-07T01:42:49.748Z,100049.97
2023-11-07T01:45:18.137Z,100059.63
2023-11-07T01:47:46.391Z,100069.34
2023-11-07T01:50:15.411Z,100061.66
2023-11-07T01:52:43.502Z,100071.47
2023-11-07T01:55:17.875Z,100061.97
2023-11-07T01:57:47.109Z,100064.75
2023-11-07T02:00:16.775Z,100071.13
2023-11-07T02:02:46.056Z,100058.16
2023-11-07T02:05:14.055Z,100066.03
2023-11-07T02:07:41.828Z,100060.09
2023-11-07T02:10:12.650Z,100074.16
2023-11-07T02:12:40.457Z,100071.72
2023-11-07T02:15:24.752Z,100070.63
2023-11-07T02:17:52.583Z,100074.16
2023-11-07T02:20:20.698Z,100067.00
2023-11-07T02:22:54.500Z,100066.03
2023-11-07T02:25:22.391Z,100080.88
2023-11-07T02:27:50.167Z,100073.50
2023-11-07T02:30:17.939Z,100076.03
2023-11-07T02:32:45.886Z,100066.84
2023-11-07T02:35:13.821Z,100065.91
2023-11-07T02:37:42.056Z,100073.59
2023-11-07T02:40:11.341Z,100059.41
2023-11-07T02:42:39.336Z,100067.41
2023-11-07T02:45:09.096Z,100069.75
2023-11-07T02:47:41.961Z,100075.91
2023-11-07T02:50:14.486Z,100070.38
2023-11-07T02:52:42.325Z,100061.53
2023-11-07T02:55:10.139Z,100066.84
2023-11-07T02:57:37.860Z,100063.25
2023-11-07T03:00:09.208Z,100056.19
2023-11-07T03:02:38.493Z,100073.00
2023-11-07T03:05:07.886Z,100058.06
2023-11-07T03:07:36.239Z,100059.06
2023-11-07T03:10:06.619Z,100067.81
2023-11-07T03:12:34.838Z,100064.38
2023-11-07T03:15:02.587Z,100054.53
2023-11-07T03:17:30.374Z,100069.38
2023-11-07T03:19:58.665Z,100066.53
2023-11-07T03:22:28.003Z,100073.63
2023-11-07T03:24:55.881Z,100071.88
2023-11-07T03:27:23.877Z,100073.63
2023-11-07T03:29:51.716Z,100065.69
2023-11-07T03:32:21.233Z,100063.81
2023-11-07T03:34:48.984Z,100061.94
2023-11-07T03:37:16.746Z,100059.34
2023-11-07T03:39:44.508Z,100061.78
2023-11-07T03:42:13.872Z,100062.56
2023-11-07T03:44:41.993Z,100067.91
2023-11-07T03:47:10.672Z,100065.31
2023-11-07T03:49:38.542Z,100076.00
2023-11-07T03:52:06.771Z,100077.72
2023-11-07T03:54:34.568Z,100072.38
2023-11-07T03:57:02.424Z,100072.38
2023-11-07T03:59:30.206Z,100076.84
2023-11-07T04:01:59.462Z,100081.25
2023-11-07T04:04:28.035Z,100078.53
2023-11-07T04:06:55.876Z,100079.38
2023-11-07T04:09:23.757Z,100082.91
2023-11-07T04:11:51.550Z,100087.22
2023-11-07T04:14:19.378Z,100096.09
2023-11-07T04:16:47.098Z,100076.72
2023-11-07T04:19:14.906Z,100089.91
2023-11-07T04:21:44.037Z,100079.38
2023-11-07T04:24:13.656Z,100080.25
2023-11-07T04:26:42.120Z,100083.38
2023-11-07T04:29:09.895Z,100072.91
2023-11-07T04:31:39.289Z,100081.31
2023-11-07T04:34:10.838Z,100081.41
2023-11-07T04:36:44.043Z,100080.34
2023-11-07T04:39:13.667Z,100082.03
2023-11-07T04:41:42.709Z,100074.78
2023-11-07T04:44:12.344Z,100083.44
2023-11-07T04:46:40.347Z,100077.13
2023-11-07T04:49:08.725Z,100075.16
2023-11-07T04:51:37.665Z,100077.75
2023-11-07T04:54:05.826Z,100075.94
2023-11-07T04:56:34.249Z,100074.06
2023-11-07T04:59:02.035Z,100083.81
2023-11-07T05:01:30.687Z,100080.38
2023-11-07T05:03:59.425Z,100075.16
2023-11-07T05:06:27.891Z,100078.78
2023-11-07T05:08:55.823Z,100082.78
2023-11-07T05:11:23.658Z,100084.38
2023-11-07T05:13:52.031Z,100086.25
2023-11-07T05:16:20.470Z,100090.81
2023-11-07T05:18:49.138Z,100086.41
2023-11-07T05:21:17.239Z,100088.28
2023-11-07T05:23:44.977Z,100084.75
2023-11-07T05:26:14.588Z,100087.38
2023-11-07T05:28:44.212Z,100083.09
2023-11-07T05:31:11.924Z,100074.25
2023-11-07T05:33:39.971Z,100084.94
2023-11-07T05:36:08.676Z,100076.06
2023-11-07T05:38:36.547Z,100077.75
2023-11-07T05:41:05.836Z,100091.81
2023-11-07T05:43:33.610Z,100087.41
2023-11-07T05:46:01.330Z,100089.00
2023-11-07T05:48:29.297Z,100094.34
2023-11-07T05:50:58.797Z,100079.41
2023-11-07T05:53:26.805Z,100088.13
2023-11-07T05:55:55.273Z,100090.81
2023-11-07T05:58:23.112Z,100091.81
2023-11-07T06:00:51.368Z,100105.13
2023-11-07T06:03:19.241Z,100095.53
2023-11-07T06:05:47.183Z,100095.63
2023-11-07T06:08:15.049Z,100100.88
2023-11-07T06:10:44.278Z,100105.31
2023-11-07T06:13:12.118Z,100106.22
2023-11-07T06:15:39.887Z,100099.41
2023-11-07T06:18:07.919Z,100105.63
2023-11-07T06:20:35.878Z,100113.66
2023-11-07T06:23:03.685Z,100119.03
2023-11-07T06:25:31.416Z,100105.91
2023-11-07T06:27:59.779Z,100112.22
2023-11-07T06:30:31.147Z,100104.34
2023-11-07T06:32:59.787Z,100100.75
2023-11-07T06:35:27.775Z,100118.19
2023-11-07T06:37:55.610Z,100116.56
2023-11-07T06:40:24.892Z,100130.59
2023-11-07T06:42:55.764Z,100114.09
2023-11-07T06:45:24.350Z,100122.75
2023-11-07T06:47:52.753Z,100137.75
2023-11-07T06:50:20.739Z,100145.84
2023-11-07T06:52:53.796Z,100139.47
2023-11-07T06:55:26.103Z,100153.72
2023-11-07T06:57:56.063Z,100146.72
2023-11-07T07:00:26.596Z,100158.41
2023-11-07T07:02:57.492Z,100153.94
2023-11-07T07:05:29.289Z,100153.00
2023-11-07T07:07:57.558Z,100148.53
2023-11-07T07:10:26.106Z,100149.25
2023-11-07T07:12:54.999Z,100151.81
2023-11-07T07:15:22.878Z,100155.34
2023-11-07T07:17:50.799Z,100162.59
2023-11-07T07:20:18.615Z,100151.06
2023-11-07T07:22:46.469Z,100159.94
2023-11-07T07:25:17.332Z,100168.63
2023-11-07T07:27:47.083Z,100163.28
2023-11-07T07:30:23.465Z,100164.09
2023-11-07T07:32:52.609Z,100162.38
2023-11-07T07:35:22.674Z,100168.22
2023-11-07T07:37:54.686Z,100177.91
2023-11-07T07:40:30.207Z,100176.84
2023-11-07T07:43:00.233Z,100168.28
2023-11-07T07:45:30.827Z,100182.38
2023-11-07T07:47:59.543Z,100174.28
2023-11-07T07:50:31.703Z,100187.94
2023-11-07T07:53:03.037Z,100182.16
2023-11-07T07:55:35.136Z,100171.69
2023-11-07T07:58:06.597Z,100182.84
2023-11-07T08:00:34.422Z,100177.50
2023-11-07T08:03:08.576Z,100175.63
2023-11-07T08:05:41.744Z,100173.63
2023-11-07T08:08:11.579Z,100185.91
2023-11-07T08:10:40.496Z,100174.28
2023-11-07T08:13:11.453Z,100173.13
2023-11-07T08:15:39.613Z,100177.34
2023-11-07T08:18:08.876Z,100175.28
2023-11-07T08:20:39.480Z,100173.44
2023-11-07T08:23:07.836Z,100170.53
2023-11-07T08:25:36.111Z,100176.41
2023-11-07T08:28:10.754Z,100169.19
2023-11-07T08:30:39.161Z,100165.00
2023-11-07T08:33:08.961Z,100177.88
2023-11-07T08:35:40.621Z,100189.53
2023-11-07T08:38:08.535Z,100187.81
2023-11-07T08:40:37.736Z,100192.84
2023-11-07T08:43:05.675Z,100192.69
2023-11-07T08:45:36.571Z,100186.47
2023-11-07T08:48:04.945Z,100183.81
2023-11-07T08:50:33.503Z,100193.16
2023-11-07T08:53:06.212Z,100192.84
2023-11-07T08:55:34.302Z,100194.56
2023-11-07T08:58:02.116Z,100192.75
2023-11-07T09:00:30.737Z,100196.94
2023-11-07T09:02:58.761Z,100199.53
2023-11-07T09:05:27.405Z,100207.53
2023-11-07T09:07:55.612Z,100197.94
2023-11-07T09:10:23.424Z,100208.50
2023-11-07T09:12:51.347Z,100207.69
2023-11-07T09:15:21.303Z,100213.00
2023-11-07T09:17:49.505Z,100216.56
2023-11-07T09:20:17.679Z,100211.22
2023-11-07T09:22:47.745Z,100215.66
2023-11-07T09:25:15.489Z,100217.28
2023-11-07T09:27:44.987Z,100221.69
2023-11-07T09:30:13.722Z,100214.72
2023-11-07T09:32:45.687Z,100221.63
2023-11-07T09:35:13.624Z,100229.66
2023-11-07T09:37:42.129Z,100226.34
2023-11-07T09:40:14.087Z,100238.59
2023-11-07T09:42:42.912Z,100232.38
2023-11-07T09:45:22.260Z,100228.94
2023-11-07T09:47:51.923Z,100232.72
2023-11-07T09:50:23.262Z,100237.84
2023-11-07T09:52:52.904Z,100230.75
2023-11-07T09:55:20.803Z,100230.56
2023-11-07T09:58:05.416Z,100240.34
2023-11-07T10:00:46.652Z,100241.28
2023-11-07T10:03:16.354Z,100243.09
2023-11-07T10:05:47.913Z,100234.06
2023-11-07T10:08:17.521Z,100238.47
2023-11-07T10:11:05.248Z,100237.28
2023-11-07T10:13:33.098Z,100250.56
2023-11-07T10:18:51.254Z,100250.56
2023-11-07T10:21:36.207Z,100254.41
2023-11-07T10:24:05.085Z,100248.44
2023-11-07T10:26:33.022Z,100251.97
2023-11-07T10:29:18.057Z,100257.28
2023-11-07T10:32:04.115Z,100264.59
2023-11-07T10:34:32.611Z,100254.13
2023-11-07T10:37:01.444Z,100256.88
2023-11-07T10:39:31.362Z,100261.41
2023-11-07T10:42:18.008Z,100267.63
2023-11-07T10:44:49.229Z,100257.19
2023-11-07T10:47:20.762Z,100260.50
2023-11-07T10:49:52.849Z,100261.19
2023-11-07T10:52:21.566Z,100263.88
2023-11-07T10:54:49.521Z,100248.53
2023-11-07T10:57:24.781Z,100233.44
2023-11-07T11:00:04.583Z,100241.13
2023-11-07T11:02:33.595Z,100239.31
2023-11-07T11:05:03.155Z,100254.19
2023-11-07T11:07:33.564Z,100247.81
2023-11-07T11:10:03.397Z,100236.31
2023-11-07T11:12:34.118Z,100242.22
2023-11-07T11:15:02.858Z,100234.88
2023-11-07T11:17:46.700Z,100240.56
2023-11-07T11:20:25.082Z,100232.47
2023-11-07T11:23:14.637Z,100232.13
2023-11-07T11:26:23.806Z,100240.41
2023-11-07T11:28:52.279Z,100230.81
2023-11-07T11:31:22.289Z,100227.47
2023-11-07T11:34:12.564Z,100240.41
2023-11-07T11:36:45.571Z,100235.19
2023-11-07T11:39:46.427Z,100248.38
2023-11-07T11:42:14.412Z,100235.19
2023-11-07T11:44:42.196Z,100233.00
2023-11-07T11:47:29.931Z,100241.81
2023-11-07T11:50:16.092Z,100246.31
2023-11-07T11:52:43.956Z,100245.47
2023-11-07T11:55:14.177Z,100233.25
2023-11-07T11:58:20.628Z,100235.75
2023-11-07T12:00:51.605Z,100244.03
2023-11-07T12:03:23.512Z,100231.50
2023-11-07T12:06:11.638Z,100233.19
2023-11-07T12:08:44.217Z,100225.06
2023-11-07T12:11:12.407Z,100234.66
2023-11-07T12:13:40.796Z,100220.41
2023-11-07T12:16:21.858Z,100224.13
2023-11-07T12:18:51.976Z,100218.63
2023-11-07T12:21:28.932Z,100217.97
2023-11-07T12:24:00.962Z,100222.19
2023-11-07T12:26:40.796Z,100220.22
2023-11-07T12:29:09.871Z,100223.75
2023-11-07T12:31:39.116Z,100209.59
2023-11-07T12:34:08.319Z,100221.06
2023-11-07T12:36:39.232Z,100223.69
2023-11-07T12:39:10.112Z,100223.06
2023-11-07T12:41:38.829Z,100225.91
2023-11-07T12:44:14.575Z,100221.25
2023-11-07T12:46:42.581Z,100221.50
2023-11-07T12:49:20.037Z,100233.44
2023-11-07T12:51:48.748Z,100219.19
2023-11-07T12:54:17.439Z,100219.59
2023-11-07T12:56:46.255Z,100215.81
2023-11-07T12:59:16.248Z,100219.34
2023-11-07T13:01:48.997Z,100213.75
2023-11-07T13:04:19.395Z,100215.41
2023-11-07T13:06:51.958Z,100215.66
2023-11-07T13:09:22.865Z,100207.88
2023-11-07T13:11:50.698Z,100207.97
2023-11-07T13:14:19.680Z,100208.88
2023-11-07T13:16:47.832Z,100214.44
2023-11-07T13:19:16.994Z,100222.38
2023-11-07T13:21:45.054Z,100216.06
2023-11-07T13:24:13.225Z,100212.44
2023-11-07T13:26:41.147Z,100224.81
2023-11-07T13:29:09.036Z,100226.63
2023-11-07T13:31:36.872Z,100216.78
2023-11-07T13:34:04.942Z,100226.63
2023-11-07T13:36:32.818Z,100224.97
2023-11-07T13:39:00.650Z,100223.09
2023-11-07T13:41:28.543Z,100223.94
2023-11-07T13:43:56.311Z,100229.47
2023-11-07T13:46:24.118Z,100222.78
2023-11-07T13:48:54.489Z,100219.59
2023-11-07T13:51:22.627Z,100229.78
2023-11-07T13:53:52.006Z,100216.56
2023-11-07T13:56:20.147Z,100224.44
2023-11-07T13:58:49.086Z,100216.16
2023-11-07T14:01:16.883Z,100230.22
2023-11-07T14:03:45.465Z,100218.84
2023-11-07T14:06:13.933Z,100227.03
2023-11-07T14:08:42.193Z,100225.41
2023-11-07T14:11:11.252Z,100219.44
2023-11-07T14:13:39.001Z,100224.69
2023-11-07T14:16:06.994Z,100231.09
2023-11-07T14:18:34.879Z,100231.41
2023-11-07T14:21:04.198Z,100233.69
2023-11-07T14:23:32.061Z,100229.69
2023-11-07T14:25:59.959Z,100230.53
2023-11-07T14:28:28.342Z,100235.28
2023-11-07T14:30:58.977Z,100242.25
2023-11-07T14:33:29.404Z,100225.69
2023-11-07T14:35:58.758Z,100227.34
2023-11-07T14:38:30.043Z,100223.00
2023-11-07T14:40:58.774Z,100229.91
2023-11-07T14:43:26.744Z,100243.16
2023-11-07T14:45:54.511Z,100242.44
2023-11-07T14:48:23.214Z,100248.03
2023-11-07T14:50:54.187Z,100251.91
2023-11-07T14:53:24.537Z,100249.69
2023-11-07T14:55:53.713Z,100258.50
2023-11-07T14:58:23.142Z,100254.25
2023-11-07T15:00:52.388Z,100262.44
2023-11-07T15:03:20.294Z,100263.47
2023-11-07T15:05:51.120Z,100263.47
2023-11-07T15:08:20.363Z,100263.63
2023-11-07T15:10:48.476Z,100263.63
2023-11-07T15:13:16.245Z,100252.22
2023-11-07T15:15:44.414Z,100255.53
2023-11-07T15:18:12.522Z,100274.09
2023-11-07T15:20:42.170Z,100274.16
2023-11-07T15:23:10.001Z,100268.19
2023-11-07T15:25:38.980Z,100273.38
2023-11-07T15:28:06.808Z,100279.97
2023-11-07T15:30:36.718Z,100276.13
2023-11-07T15:33:05.157Z,100273.56
2023-11-07T15:35:38.044Z,100285.97
2023-11-07T15:38:07.771Z,100280.78
2023-11-07T15:40:36.827Z,100284.25
2023-11-07T15:43:09.673Z,100291.41
2023-11-07T15:45:37.876Z,100294.16
2023-11-07T15:48:09.506Z,100292.41
2023-11-07T15:50:38.681Z,100293.38
2023-11-07T15:53:09.647Z,100298.88
2023-11-07T15:55:40.149Z,100300.00
2023-11-07T15:58:09.846Z,100307.34
2023-11-07T16:00:37.693Z,100307.66
2023-11-07T16:03:06.693Z,100305.28
2023-11-07T16:05:36.785Z,100305.66
2023-11-07T16:08:08.088Z,100311.91
2023-11-07T16:10:36.939Z,100315.59
2023-11-07T16:13:05.787Z,100318.78
2023-11-07T16:15:33.863Z,100311.84
2023-11-07T16:18:02.692Z,100316.25
2023-11-07T16:20:30.664Z,100325.44
2023-11-07T16:22:58.551Z,100321.16
2023-11-07T16:25:26.298Z,100331.16
2023-11-07T16:27:54.762Z,100319.88
2023-11-07T16:30:23.151Z,100323.53
2023-11-07T16:32:52.002Z,100327.38
2023-11-07T16:35:19.953Z,100335.50
2023-11-07T16:37:47.762Z,100326.75
2023-11-07T16:40:17.736Z,100347.19
2023-11-07T16:42:46.240Z,100342.13
2023-11-07T16:45:16.127Z,100354.56
2023-11-07T16:47:45.112Z,100346.69
2023-11-07T16:50:15.990Z,100357.50
2023-11-07T16:52:43.992Z,100356.13
2023-11-07T16:55:14.933Z,100348.47
2023-11-07T16:57:46.050Z,100363.63
2023-11-07T17:00:18.533Z,100373.44
2023-11-07T17:02:46.393Z,100363.84
2023-11-07T17:05:14.394Z,100360.56
2023-11-07T17:07:42.436Z,100369.50
2023-11-07T17:10:11.756Z,100387.41
2023-11-07T17:12:39.732Z,100396.41
2023-11-07T17:15:09.260Z,100385.81
2023-11-07T17:17:38.081Z,100389.44
2023-11-07T17:20:09.101Z,100386.78
2023-11-07T17:22:38.750Z,100378.31
2023-11-07T17:25:07.825Z,100377.31
2023-11-07T17:27:36.372Z,100393.34
2023-11-07T17:30:05.376Z,100397.00
2023-11-07T17:32:33.305Z,100397.88
2023-11-07T17:35:04.668Z,100398.94
2023-11-07T17:37:34.123Z,100386.84
2023-11-07T17:40:01.898Z,100400.88
2023-11-07T17:42:30.812Z,100402.56
2023-11-07T17:44:58.782Z,100405.22
2023-11-07T17:47:28.733Z,100409.66
2023-11-07T17:49:57.994Z,100402.75
2023-11-07T17:52:25.887Z,100406.22
2023-11-07T17:54:54.533Z,100408.97
2023-11-07T17:57:22.905Z,100409.81
2023-11-07T17:59:53.934Z,100401.00
2023-11-07T18:02:24.068Z,100408.09
2023-11-07T18:04:51.965Z,100408.97
2023-11-07T18:07:23.530Z,100412.56
2023-11-07T18:09:51.496Z,100417.06
2023-11-07T18:12:20.731Z,100421.63
2023-11-07T18:14:48.787Z,100419.16
2023-11-07T18:17:16.638Z,100415.84
2023-11-07T18:19:44.557Z,100400.75
2023-11-07T18:22:13.264Z,100420.09
2023-11-07T18:24:41.107Z,100414.97
2023-11-07T18:27:08.990Z,100416.84
2023-11-07T18:29:37.964Z,100419.41
2023-11-07T18:32:08.107Z,100414.13
2023-11-07T18:34:36.672Z,100423.13
2023-11-07T18:37:08.988Z,100421.44
2023-11-07T18:39:37.590Z,100422.31
2023-11-07T18:42:05.750Z,100407.31
2023-11-07T18:44:36.883Z,100422.38
2023-11-07T18:47:05.325Z,100417.13
2023-11-07T18:49:33.687Z,100426.00
2023-11-07T18:52:01.900Z,100430.47
2023-11-07T18:54:30.517Z,100426.03
2023-11-07T18:56:59.021Z,100432.25
2023-11-07T18:59:34.520Z,100425.25
2023-11-07T19:02:08.490Z,100442.69
2023-11-07T19:04:37.894Z,100440.94
2023-11-07T19:07:08.815Z,100447.06
2023-11-07T19:09:37.097Z,100444.47
2023-11-07T19:12:05.886Z,100451.66
2023-11-07T19:14:33.904Z,100447.44
2023-11-07T19:17:01.777Z,100447.44
2023-11-07T19:19:30.060Z,100459.91
2023-11-07T19:22:02.098Z,100451.16
2023-11-07T19:24:30.212Z,100463.63
2023-11-07T19:26:59.138Z,100469.84
2023-11-07T19:29:27.152Z,100458.44
2023-11-07T19:31:55.304Z,100466.25
2023-11-07T19:34:23.922Z,100460.16
2023-11-07T19:36:52.165Z,100471.25
2023-11-07T19:39:21.729Z,100479.09
2023-11-07T19:41:49.775Z,100479.88
2023-11-07T19:44:18.021Z,100484.31
2023-11-07T19:46:45.934Z,100486.03
2023-11-07T19:49:13.765Z,100485.88
2023-11-07T19:51:42.020Z,100480.50
2023-11-07T19:54:12.001Z,100470.03
2023-11-07T19:56:41.850Z,100480.38
2023-11-07T19:59:12.239Z,100479.31
2023-11-07T20:01:40.725Z,100485.59
2023-11-07T20:04:09.621Z,100483.72
2023-11-07T20:06:37.806Z,100488.19
2023-11-07T20:09:06.237Z,100490.06
2023-11-07T20:11:36.130Z,100484.81
2023-11-07T20:14:04.307Z,100490.94
2023-11-07T20:16:32.127Z,100490.81
2023-11-07T20:18:59.946Z,100481.03
2023-11-07T20:21:28.039Z,100482.72
2023-11-07T20:23:55.877Z,100489.94
2023-11-07T20:26:23.723Z,100487.22
2023-11-07T20:28:51.533Z,100486.34
2023-11-07T20:31:20.238Z,100482.84
2023-11-07T20:33:50.307Z,100489.94
2023-11-07T20:36:19.964Z,100491.78
2023-11-07T20:38:49.110Z,100486.53
2023-11-07T20:41:18.607Z,100482.06
2023-11-07T20:43:47.717Z,100481.19
2023-11-07T20:46:30.803Z,100480.31
2023-11-07T20:49:04.632Z,100491.13
2023-11-07T20:51:35.445Z,100493.09
2023-11-07T20:54:04.708Z,100491.56
2023-11-07T20:56:33.932Z,100484.69
2023-11-07T20:59:02.345Z,100495.34
2023-11-07T21:01:30.151Z,100484.94
2023-11-07T21:03:58.210Z,100482.44
2023-11-07T21:06:26.937Z,100486.06
2023-11-07T21:08:54.787Z,100498.63
2023-11-07T21:11:22.630Z,100485.63
2023-11-07T21:13:54.019Z,100496.22
2023-11-07T21:16:21.758Z,100492.09
2023-11-07T21:18:50.179Z,100496.75
2023-11-07T21:21:18.220Z,100493.47
2023-11-07T21:23:46.008Z,100485.63
2023-11-07T21:26:15.294Z,100475.25
2023-11-07T21:28:43.159Z,100479.78
2023-11-07T21:31:10.981Z,100479.97
2023-11-07T21:33:39.941Z,100486.16
2023-11-07T21:36:08.067Z,100489.75
2023-11-07T21:38:36.099Z,100486.34
2023-11-07T21:41:04.304Z,100488.25
2023-11-07T21:43:32.188Z,100479.59
2023-11-07T21:46:01.561Z,100488.38
2023-11-07T21:48:29.736Z,100486.81
2023-11-07T21:50:57.840Z,100486.75
2023-11-07T21:53:25.736Z,100480.78
2023-11-07T21:55:54.592Z,100489.63
2023-11-07T21:58:22.811Z,100490.59
2023-11-07T22:00:50.695Z,100496.94
2023-11-07T22:03:18.907Z,100495.22
2023-11-07T22:05:46.819Z,100490.84
2023-11-07T22:08:14.583Z,100489.97
2023-11-07T22:10:42.495Z,100486.66
2023-11-07T22:13:10.225Z,100496.41
2023-11-07T22:15:38.189Z,100491.22
2023-11-07T22:18:06.062Z,100483.47
2023-11-07T22:20:33.826Z,100488.72
2023-11-07T22:23:02.239Z,100486.16
2023-11-07T22:25:30.050Z,100496.06
2023-11-07T22:27:57.824Z,100500.47
2023-11-07T22:30:26.515Z,100497.09
2023-11-07T22:32:54.399Z,100495.41
2023-11-07T22:35:23.324Z,100501.78
2023-11-07T22:37:51.494Z,100489.44
2023-11-07T22:40:19.339Z,100501.78
2023-11-07T22:42:47.176Z,100490.53
2023-11-07T22:45:16.949Z,100499.53
2023-11-07T22:47:44.855Z,100494.13
2023-11-07T22:50:12.688Z,100508.22
2023-11-07T22:52:40.484Z,100489.75
2023-11-07T22:55:12.575Z,100496.72
2023-11-07T22:57:40.920Z,100497.75
2023-11-07T23:00:11.614Z,100501.34
2023-11-07T23:02:40.622Z,100497.00
2023-11-07T23:05:09.070Z,100509.38
2023-11-07T23:07:36.822Z,100502.25
2023-11-07T23:10:05.067Z,100507.53
2023-11-07T23:12:32.887Z,100509.44
2023-11-07T23:15:00.777Z,100510.25
2023-11-07T23:17:28.630Z,100515.63
2023-11-07T23:19:56.451Z,100516.47
2023-11-07T23:22:24.194Z,100518.22
2023-11-07T23:24:53.702Z,100521.81
2023-11-07T23:27:21.484Z,100521.81
2023-11-07T23:29:55.062Z,100528.81
2023-11-07T23:32:23.882Z,100531.38
2023-11-07T23:34:51.860Z,100537.44
2023-11-07T23:37:22.453Z,100540.88
2023-11-07T23:39:50.319Z,100540.81
2023-11-07T23:42:19.902Z,100551.31
2023-11-07T23:44:48.453Z,100537.13
2023-11-07T23:47:16.216Z,100551.13
2023-11-07T23:49:44.010Z,100548.31
2023-11-07T23:52:11.976Z,100544.72
2023-11-07T23:54:39.793Z,100534.81
2023-11-07T23:57:07.646Z,100527.75
2023-11-07T23:59:35.598Z,100539.94
